• Join FlightAware (Why Join?)
  • Login
  • US Flag 
06:35PM EDT


 

Airport Tracker/Info


-or-


 

Live Flight TrackerFlight Track Log ✈ SWA253 ✈ 27-Apr-2013 ✈ KMCO - KALB

Flight Track Log - Related Links

Times and Time Zones

All times are in EDT time to prevent confusion due to time zone crossing. See the SWA253 flight status page for this flight to view local times or setup timezone preferences in your user account.

Time Position Orientation Groundspeed Altitude Reporting Facility
EDT Latitude Longitude Course Direction KTS MPH feet Rate Location/Type
06:43PM 28.4167 -81.3000 164° South 161 185 600  Level Orlando TRACON
06:44PM 28.3667 -81.2833 164° South 196 226 2,000 2,400 Climbing Orlando TRACON
06:45PM 28.3667 -81.2000 90° East 228 262 5,400 2,700 Climbing Orlando TRACON
06:46PM 28.4167 -81.2000 360° North 280 322 7,200 2,580 Climbing Orlando TRACON
06:48PM 28.5881 -81.2542 344° North 304 350 12,900 2,820 Climbing Jacksonville Center
06:49PM 28.6867 -81.2786 348° North 335 386 15,900 2,760 Climbing Jacksonville Center
06:50PM 28.7892 -81.3078 346° North 361 415 18,500 2,580 Climbing Jacksonville Center
06:51PM 28.8981 -81.3344 348° North 377 434 21,100 2,460 Climbing Jacksonville Center
06:52PM 29.0089 -81.3658 346° North 394 453 23,500 2,400 Climbing Jacksonville Center
06:53PM 29.1200 -81.3928 348° North 406 467 25,900 2,040 Climbing Jacksonville Center
06:54PM 29.2392 -81.4028 356° North 412 474 27,600 1,500 Climbing Jacksonville Center
06:55PM 29.3644 -81.4056 359° North 425 489 29,000 660 Climbing Jacksonville Center
06:56PM 29.4897 -81.4061 360° North 441 507 29,000 720 Level Jacksonville Center
06:57PM 29.6147 -81.4067 360° North 441 507 30,500 1,680 Climbing Jacksonville Center
06:58PM 29.7381 -81.4094 359° North 441 507 32,400 1,560 Climbing Jacksonville Center
06:59PM 29.8633 -81.4125 359° North 441 507 33,700 1,500 Climbing Jacksonville Center
07:00PM 29.9886 -81.4128 360° North 441 507 35,500 1,620 Climbing Jacksonville Center
07:01PM 30.0992 -81.4136 360° North 441 507 37,000 720 Climbing Jacksonville Center
07:02PM 30.2203 -81.4167 359° North 441 507 37,000 420 Level Jacksonville Center
07:03PM 30.3478 -81.4147 North 441 507 37,900 960 Climbing Jacksonville Center
07:04PM 30.4664 -81.3742 16° North 441 507 39,000 540 Climbing Jacksonville Center
07:05PM 30.5847 -81.3242 20° North 436 502 39,000  Level Jacksonville Center
07:06PM 30.7031 -81.2714 21° North 447 514 39,000  Level Jacksonville Center
07:07PM 30.8233 -81.2208 20° North 447 514 39,000  Level Jacksonville Center
07:08PM 30.9397 -81.1681 21° North 447 514 39,000  Level Jacksonville Center
07:09PM 31.0581 -81.1175 20° North 447 514 39,000  Level Jacksonville Center
07:10PM 31.1783 -81.0642 21° North 447 514 39,000  Level Jacksonville Center
07:11PM 31.2944 -81.0108 21° North 447 514 39,000  Level Jacksonville Center
07:12PM 31.4250 -80.9497 22° Northeast 450 518 39,000  Level Jacksonville Center
07:13PM 31.5308 -80.9061 19° North 444 511 39,000  Level Jacksonville Center
07:14PM 31.6614 -80.8472 21° North 444 511 39,000  Level Jacksonville Center
07:15PM 31.7756 -80.7933 22° Northeast 442 509 39,000  Level Jacksonville Center
07:16PM 31.8956 -80.7417 20° North 442 509 39,000  Level Jacksonville Center
07:17PM 32.0097 -80.6900 21° North 443 510 39,000  Level Jacksonville Center
07:18PM 32.1153 -80.6433 21° North 449 517 39,000  Level Jacksonville Center
07:19PM 32.2311 -80.5914 21° North 444 511 39,000  Level Jacksonville Center
07:20PM 32.3472 -80.5392 21° North 444 511 39,000  Level Jacksonville Center
07:21PM 32.4608 -80.4847 22° Northeast 444 511 39,000  Level Jacksonville Center
07:22PM 32.5747 -80.4322 21° North 444 511 39,000  Level Jacksonville Center
07:23PM 32.6906 -80.3797 21° North 444 511 39,000  Level Jacksonville Center
07:24PM 32.8044 -80.3272 21° North 444 511 39,000  Level Jacksonville Center
07:25PM 32.9161 -80.2744 22° Northeast 439 505 39,000  Level Jacksonville Center
07:26PM 33.0483 -80.2136 21° North 435 501 39,000  Level Jacksonville Center
07:27PM 33.1619 -80.1606 21° North 443 510 39,000  Level Jacksonville Center
07:28PM 33.2819 -80.1072 20° North 449 517 39,000  Level Jacksonville Center
07:29PM 33.3956 -80.0539 21° North 444 511 39,000  Level Jacksonville Center
07:30PM 33.5131 -79.9978 22° Northeast 444 511 39,000  Level Jacksonville Center
07:31PM 33.6308 -79.9442 21° North 444 511 39,000  Level Jacksonville Center
07:32PM 33.7483 -79.8878 22° Northeast 444 511 39,000  Level Jacksonville Center
07:34PM 33.9222 -79.8058 21° North 430 495 39,000  Level Washington Center
07:35PM 34.0392 -79.7492 22° Northeast 431 496 39,000  Level Washington Center
07:36PM 34.1556 -79.6975 20° North 441 507 39,000  Level Washington Center
07:37PM 34.2639 -79.6400 24° Northeast 451 519 39,000  Level Washington Center
07:38PM 34.3767 -79.5800 24° Northeast 451 519 39,000  Level Washington Center
07:39PM 34.4892 -79.5225 23° Northeast 446 513 39,000  Level Washington Center
07:40PM 34.6017 -79.4625 24° Northeast 441 507 39,000  Level Washington Center
07:41PM 34.7267 -79.4003 22° Northeast 441 507 39,000  Level Washington Center
07:42PM 34.8392 -79.3397 24° Northeast 447 514 39,000  Level Washington Center
07:43PM 34.9517 -79.2814 23° Northeast 442 509 39,000  Level Washington Center
07:44PM 35.0642 -79.2206 24° Northeast 442 509 39,000  Level Washington Center
07:45PM 35.1742 -79.1647 23° Northeast 442 509 39,000  Level Washington Center
07:46PM 35.2867 -79.1036 24° Northeast 442 509 39,000  Level Washington Center
07:47PM 35.3969 -79.0444 24° Northeast 442 509 39,000  Level Washington Center
07:48PM 35.5092 -78.9831 24° Northeast 442 509 39,000  Level Washington Center
07:49PM 35.6214 -78.9267 22° Northeast 437 503 39,000  Level Washington Center
07:50PM 35.7317 -78.8647 25° Northeast 437 503 39,000  Level Washington Center
07:51PM 35.8439 -78.8028 24° Northeast 437 503 39,000  Level Washington Center
07:52PM 35.9461 -78.7222 33° Northeast 437 503 39,000  Level Washington Center
07:53PM 36.0486 -78.6336 35° Northeast 437 503 39,000  Level Washington Center
07:54PM 36.1508 -78.5450 35° Northeast 442 509 39,000  Level Washington Center
07:55PM 36.2514 -78.4536 36° Northeast 448 516 39,000  Level Washington Center
07:56PM 36.3514 -78.3644 36° Northeast 448 516 39,000  Level Washington Center
07:57PM 36.4536 -78.2750 35° Northeast 443 510 39,000  Level Washington Center
07:58PM 36.5558 -78.1856 35° Northeast 443 510 39,000  Level Washington Center
07:59PM 36.6517 -78.0928 38° Northeast 443 510 39,000  Level Washington Center
08:00PM 36.7536 -78.0028 35° Northeast 443 510 39,000  Level Washington Center
08:01PM 36.8556 -77.9125 35° Northeast 443 510 39,000  Level Washington Center
08:02PM 36.9553 -77.8244 35° Northeast 443 510 39,000  Level Washington Center
08:03PM 37.0528 -77.7311 37° Northeast 443 510 39,000  Level Washington Center
08:04PM 37.1525 -77.6428 35° Northeast 443 510 39,000  Level Washington Center
08:05PM 37.2519 -77.5514 36° Northeast 443 510 39,000  Level Washington Center
08:06PM 37.3517 -77.4600 36° Northeast 443 510 39,000  Level Washington Center
08:07PM 37.4531 -77.3681 36° Northeast 443 510 39,000  Level Washington Center
08:08PM 37.5506 -77.2683 39° Northeast 443 510 39,000  Level Washington Center
08:09PM 37.6436 -77.1603 43° Northeast 443 510 39,000  Level Washington Center
08:10PM 37.7347 -77.0544 43° Northeast 443 510 39,000  Level Washington Center
08:11PM 37.8256 -76.9458 43° Northeast 443 510 39,000  Level Washington Center
08:12PM 37.9144 -76.8419 43° Northeast 443 510 39,000  Level Washington Center
08:13PM 38.0031 -76.7356 43° Northeast 438 504 39,000  Level Washington Center
08:14PM 38.0936 -76.6314 42° Northeast 438 504 39,000  Level Washington Center
08:15PM 38.1822 -76.5242 44° Northeast 433 498 39,000  Level Washington Center
08:16PM 38.2706 -76.4169 44° Northeast 433 498 39,000  Level Washington Center
08:17PM 38.3647 -76.3278 37° Northeast 428 493 39,000  Level Washington Center
08:18PM 38.4614 -76.2386 36° Northeast 423 487 39,000  Level Washington Center
08:19PM 38.5597 -76.1467 36° Northeast 423 487 39,000  Level Washington Center
08:20PM 38.6475 -76.0647 36° Northeast 435 501 39,000  Level Washington Center
08:21PM 38.7481 -75.9775 34° Northeast 435 501 39,000  Level Washington Center
08:22PM 38.8461 -75.8847 36° Northeast 435 501 39,000  Level Washington Center
08:23PM 38.9422 -75.7917 37° Northeast 430 495 39,000  Level Washington Center
08:24PM 39.0403 -75.7011 36° Northeast 430 495 39,000  Level Washington Center
08:25PM 39.1406 -75.6050 37° Northeast 430 495 39,000  Level Washington Center
08:26PM 39.2383 -75.5111 37° Northeast 430 495 39,000 -60 Level Washington Center
08:28PM 39.4806 -75.2978 34° Northeast 442 509 38,900 -360 Descending New York Center
08:29PM 39.5800 -75.2044 36° Northeast 442 509 37,900 -960 Descending New York Center
08:30PM 39.6750 -75.1161 36° Northeast 442 509 37,000 -900 Descending New York Center
08:31PM 39.7742 -75.0275 34° Northeast 442 509 36,100 -960 Descending New York Center
08:32PM 39.8750 -74.9444 32° Northeast 437 503 35,100 -600 Descending New York Center
08:33PM 39.9753 -74.8206 43° Northeast 437 503 35,000 -60 Descending New York Center
08:34PM 40.0628 -74.6981 47° Northeast 448 516 35,000  Level New York Center
08:35PM 40.1481 -74.5753 48° Northeast 453 521 35,000 -360 Level New York Center
08:36PM 40.2375 -74.4550 46° Northeast 453 521 34,300 -1,140 Descending New York Center
08:37PM 40.3322 -74.3539 39° Northeast 444 511 32,800 -1,560 Descending New York Center
08:38PM 40.4289 -74.2528 39° Northeast 438 504 31,300 -1,440 Descending New York Center
08:41PM 40.6597 -74.0050 39° Northeast 415 478 27,700 -1,320 Descending Boston Center
08:42PM 40.7444 -73.9139 39° Northeast 386 444 26,600 -1,080 Descending Boston Center
08:43PM 40.8269 -73.8197 41° Northeast 381 438 25,600 -1,020 Descending Boston Center
08:44PM 40.9050 -73.7253 42° Northeast 386 444 24,600 -1,020 Descending Boston Center
08:45PM 40.9956 -73.6556 30° Northeast 381 438 23,600 -840 Descending Boston Center
08:46PM 41.0917 -73.6161 17° North 360 414 23,000 -780 Descending Boston Center
08:47PM 41.1858 -73.5736 19° North 355 409 22,100 -960 Descending Boston Center
08:48PM 41.2822 -73.5283 19° North 355 409 21,100 -900 Descending Boston Center
08:49PM 41.3744 -73.4803 21° North 349 402 20,300 -600 Descending Boston Center
08:50PM 41.4664 -73.4622 North 344 396 20,000 -360 Descending Boston Center
08:51PM 41.5475 -73.4719 355° North 333 383 19,600 -1,080 Descending Boston Center
08:52PM 41.6475 -73.4819 356° North 327 376 17,900 -1,200 Descending Boston Center
08:53PM 41.7308 -73.4889 356° North 327 376 17,200 -1,020 Descending Boston Center
08:53PM 41.8014 -73.5011 353° North 322 371 16,300 -1,200 Descending Boston Center
08:54PM 41.8264 -73.5156 337° Northwest 327 376 16,000 -1,500 Descending Boston Center
08:54PM 41.8844 -73.5331 347° North 315 362 14,800 -1,740 Descending Boston Center
08:55PM 41.9011 -73.5392 345° North 314 361 14,300 -1,920 Descending Boston Center
08:55PM 41.9697 -73.5653 344° North 309 356 12,900 -2,040 Descending Boston Center
08:56PM 41.9947 -73.5714 350° North 309 356 12,300 -1,740 Descending Boston Center
08:56PM 42.0506 -73.5919 345° North 300 345 11,200 -1,320 Descending Boston Center
08:57PM 42.0569 -73.5950 340° North 304 350 11,000 -240 Descending Boston Center
08:57PM 42.1214 -73.6156 347° North 276 318 11,000 -120 Level Boston Center
08:58PM 42.1378 -73.6217 345° North 285 328 10,900 -420 Descending Boston Center
08:58PM 42.1897 -73.6422 344° North 241 277 10,600 -840 Descending Boston Center
08:59PM 42.2044 -73.6453 351° North 261 300 10,100 -2,040 Descending Boston Center
08:59PM 42.2583 -73.6631 346° North 248 285 8,600 -1,920 Descending Boston Center
09:00PM 42.2728 -73.6689 343° North 251 289 8,200 -1,680 Descending Boston Center
09:00PM 42.3289 -73.6897 345° North 262 302 6,900 -1,620 Descending Boston Center
09:01PM 42.3414 -73.6900 359° North 251 289 6,600 -1,620 Descending Boston Center
09:01PM 42.4036 -73.7139 344° North 262 302 5,300 -1,680 Descending Boston Center
09:03PM 42.4742 -73.7406 344° North 261 300 3,700 -1,500 Descending Boston Center
09:04PM 42.5447 -73.7644 346° North 259 298 2,300 -900 Descending Boston Center
09:05PM 42.6092 -73.7886 345° North 243 280 2,000 -300 Descending Boston Center
09:06PM 42.6550 -73.8008 349° North 149 171 1,800 -480 Descending Boston Center
09:07PM 42.6944 -73.8072 353° North 129 148 1,100 -720 Descending Boston Center
09:08PM 42.7339 -73.8081 359° North 132 152 400 -720 Descending Boston Center